createdAt,value
2018-05-26T00:01:17.470Z,23.50
2018-05-26T00:03:48.362Z,23.70
2018-05-26T00:06:18.561Z,24.43
2018-05-26T00:08:49.895Z,25.37
2018-05-26T00:11:20.269Z,25.73
2018-05-26T00:13:50.606Z,23.93
2018-05-26T00:16:20.944Z,24.83
2018-05-26T00:18:51.279Z,24.53
2018-05-26T00:21:21.464Z,22.80
2018-05-26T00:23:51.501Z,22.37
2018-05-26T00:26:21.672Z,20.80
2018-05-26T00:28:52.386Z,20.57
2018-05-26T00:31:22.477Z,19.73
2018-05-26T00:33:52.568Z,19.60
2018-05-26T00:36:22.950Z,18.17
2018-05-26T00:38:53.039Z,19.20
2018-05-26T00:41:23.114Z,18.53
2018-05-26T00:43:53.391Z,17.13
2018-05-26T00:46:23.395Z,17.53
2018-05-26T00:48:53.652Z,17.53
2018-05-26T00:51:23.835Z,17.57
2018-05-26T00:53:54.031Z,17.13
2018-05-26T00:56:24.335Z,17.80
2018-05-26T00:58:54.685Z,17.43
2018-05-26T01:01:24.829Z,17.23
2018-05-26T01:03:54.976Z,18.03
2018-05-26T01:06:25.364Z,18.43
2018-05-26T01:08:55.838Z,19.10
2018-05-26T01:11:26.236Z,18.47
2018-05-26T01:13:56.064Z,18.60
2018-05-26T01:16:26.548Z,19.27
2018-05-26T01:18:56.897Z,19.20
2018-05-26T01:21:26.649Z,18.13
2018-05-26T01:23:56.822Z,18.70
2018-05-26T01:26:27.921Z,16.77
2018-05-26T01:28:57.713Z,17.80
2018-05-26T01:31:28.498Z,17.60
2018-05-26T01:33:58.777Z,17.27
2018-05-26T01:36:29.198Z,17.67
2018-05-26T01:38:59.551Z,17.60
2018-05-26T01:41:29.685Z,16.53
2018-05-26T01:43:59.527Z,17.23
2018-05-26T01:46:29.973Z,16.43
2018-05-26T01:49:00.375Z,16.90
2018-05-26T01:51:30.637Z,17.40
2018-05-26T01:54:00.949Z,15.70
2018-05-26T01:56:31.367Z,16.23
2018-05-26T01:59:01.533Z,16.87
2018-05-26T02:01:32.407Z,15.30
2018-05-26T02:04:02.929Z,16.50
2018-05-26T02:06:33.239Z,15.67
2018-05-26T02:09:03.675Z,14.07
2018-05-26T02:11:34.018Z,14.27
2018-05-26T02:14:04.347Z,14.17
2018-05-26T02:16:35.443Z,13.73
2018-05-26T02:19:06.097Z,13.97
2018-05-26T02:21:36.575Z,13.43
2018-05-26T02:24:06.837Z,14.17
2018-05-26T02:26:36.690Z,13.73
2018-05-26T02:29:06.599Z,13.60
2018-05-26T02:31:37.774Z,14.67
2018-05-26T02:34:08.203Z,15.90
2018-05-26T02:36:37.954Z,15.00
2018-05-26T02:39:08.753Z,14.77
2018-05-26T02:41:39.048Z,13.83
2018-05-26T02:44:09.331Z,14.20
2018-05-26T02:46:39.718Z,14.77
2018-05-26T02:49:10.196Z,15.73
2018-05-26T02:51:40.225Z,15.83
2018-05-26T02:54:10.639Z,15.73
2018-05-26T02:56:41.072Z,15.70
2018-05-26T02:59:11.289Z,16.57
2018-05-26T03:01:41.602Z,14.33
2018-05-26T03:04:11.724Z,15.60
2018-05-26T03:06:47.537Z,14.33
2018-05-26T03:09:23.751Z,13.93
2018-05-26T03:11:59.943Z,14.30
2018-05-26T03:14:36.196Z,13.43
2018-05-26T03:17:07.235Z,13.60
2018-05-26T03:19:37.658Z,13.10
2018-05-26T03:22:07.889Z,12.70
2018-05-26T03:24:38.311Z,12.77
2018-05-26T03:27:08.033Z,12.70
2018-05-26T03:29:37.852Z,12.13
2018-05-26T03:32:07.627Z,12.60
2018-05-26T03:34:37.420Z,12.93
2018-05-26T03:37:07.184Z,13.13
2018-05-26T03:39:37.011Z,12.90
2018-05-26T03:42:06.803Z,12.33
2018-05-26T03:44:36.561Z,13.47
2018-05-26T03:47:06.331Z,12.80
2018-05-26T03:49:36.049Z,14.07
2018-05-26T03:52:05.816Z,13.73
2018-05-26T03:54:47.279Z,14.63
2018-05-26T03:57:28.815Z,15.60
2018-05-26T04:00:14.482Z,15.83
2018-05-26T04:02:44.213Z,15.47
2018-05-26T04:05:13.980Z,16.93
2018-05-26T04:07:43.732Z,17.30
2018-05-26T04:10:13.439Z,15.67
2018-05-26T04:12:43.194Z,14.87
2018-05-26T04:15:12.925Z,15.10
2018-05-26T04:17:42.683Z,14.23
2018-05-26T04:20:12.463Z,14.60
2018-05-26T04:22:42.183Z,14.63
2018-05-26T04:25:11.957Z,14.83
2018-05-26T04:27:41.788Z,12.47
2018-05-26T04:30:11.517Z,12.80
2018-05-26T04:32:41.282Z,14.23
2018-05-26T04:35:11.022Z,13.60
2018-05-26T04:37:40.768Z,13.00
2018-05-26T04:40:10.554Z,12.97
2018-05-26T04:42:40.324Z,14.03
2018-05-26T04:45:10.078Z,14.87
2018-05-26T04:47:39.802Z,13.30
2018-05-26T04:50:09.550Z,15.20
2018-05-26T04:52:39.313Z,13.57
2018-05-26T04:55:09.044Z,11.70
2018-05-26T04:57:38.739Z,11.93
2018-05-26T05:00:08.509Z,13.57
2018-05-26T05:02:38.272Z,12.93
2018-05-26T05:05:08.087Z,12.77
2018-05-26T05:07:37.815Z,13.07
2018-05-26T05:10:07.607Z,12.07
2018-05-26T05:12:37.360Z,12.13
2018-05-26T05:15:07.095Z,12.37
2018-05-26T05:17:36.831Z,11.07
2018-05-26T05:20:06.617Z,12.57
2018-05-26T05:22:36.344Z,11.40
2018-05-26T05:25:06.103Z,11.17
2018-05-26T05:27:35.814Z,11.53
2018-05-26T05:30:05.637Z,10.83
2018-05-26T05:32:35.438Z,10.83
2018-05-26T05:35:05.165Z,11.03
2018-05-26T05:37:34.927Z,9.50
2018-05-26T05:40:04.643Z,11.10
2018-05-26T05:42:34.379Z,11.27
2018-05-26T05:45:04.141Z,10.57
2018-05-26T05:47:33.835Z,11.33
2018-05-26T05:50:03.580Z,10.10
2018-05-26T05:52:33.326Z,10.27
2018-05-26T05:55:03.098Z,10.67
2018-05-26T05:57:32.891Z,9.30
2018-05-26T06:00:02.622Z,10.97
2018-05-26T06:02:32.364Z,10.20
2018-05-26T06:05:02.154Z,9.23
2018-05-26T06:07:31.902Z,10.23
2018-05-26T06:10:01.623Z,10.27
2018-05-26T06:12:31.389Z,10.37
2018-05-26T06:15:01.126Z,10.50
2018-05-26T06:17:30.864Z,11.33
2018-05-26T06:20:00.606Z,11.30
2018-05-26T06:22:30.320Z,11.60
2018-05-26T06:25:00.089Z,11.00
2018-05-26T06:27:29.777Z,10.90
2018-05-26T06:29:59.450Z,11.27
2018-05-26T06:32:29.205Z,10.17
2018-05-26T06:34:58.912Z,11.30
2018-05-26T06:37:28.594Z,10.37
2018-05-26T06:39:58.343Z,9.77
2018-05-26T06:42:28.033Z,10.60
2018-05-26T06:44:57.728Z,11.00
2018-05-26T06:47:27.470Z,10.50
2018-05-26T06:49:57.198Z,9.63
2018-05-26T06:52:26.976Z,9.27
2018-05-26T06:54:56.670Z,9.80
2018-05-26T06:57:26.372Z,9.47
2018-05-26T06:59:56.167Z,9.10
2018-05-26T07:02:25.869Z,10.57
2018-05-26T07:04:55.558Z,9.87
2018-05-26T07:07:25.330Z,10.37
2018-05-26T07:09:55.059Z,9.80
2018-05-26T07:12:24.774Z,9.47
2018-05-26T07:14:54.499Z,9.53
2018-05-26T07:17:24.201Z,9.20
2018-05-26T07:19:53.994Z,9.13
2018-05-26T07:22:23.685Z,9.13
2018-05-26T07:24:53.438Z,10.57
2018-05-26T07:27:23.191Z,9.23
2018-05-26T07:29:52.929Z,9.53
2018-05-26T07:32:22.624Z,9.13
2018-05-26T07:34:52.378Z,10.37
2018-05-26T07:37:22.073Z,10.20
2018-05-26T07:39:51.798Z,9.03
2018-05-26T07:42:21.499Z,8.80
2018-05-26T07:44:51.195Z,9.67
2018-05-26T07:47:20.947Z,9.73
2018-05-26T07:49:50.698Z,9.97
2018-05-26T07:52:20.389Z,9.43
2018-05-26T07:54:50.156Z,9.27
2018-05-26T07:57:19.858Z,9.20
2018-05-26T07:59:49.569Z,8.23
2018-05-26T08:02:19.311Z,8.90
2018-05-26T08:04:48.997Z,8.43
2018-05-26T08:07:18.714Z,8.87
2018-05-26T08:09:48.383Z,9.23
2018-05-26T08:12:18.083Z,9.17
2018-05-26T08:14:47.816Z,8.33
2018-05-26T08:17:17.590Z,9.37
2018-05-26T08:19:47.240Z,8.43
2018-05-26T08:22:17.090Z,8.80
2018-05-26T08:24:46.821Z,9.27
2018-05-26T08:27:16.591Z,8.63
2018-05-26T08:29:46.316Z,9.00
2018-05-26T08:32:16.026Z,8.60
2018-05-26T08:34:45.739Z,8.43
2018-05-26T08:37:15.436Z,8.00
2018-05-26T08:39:45.146Z,8.43
2018-05-26T08:42:14.886Z,8.80
2018-05-26T08:44:44.565Z,8.50
2018-05-26T08:47:14.255Z,7.40
2018-05-26T08:49:44.007Z,7.37
2018-05-26T08:52:13.815Z,7.40
2018-05-26T08:54:43.630Z,7.37
2018-05-26T08:57:13.431Z,7.90
2018-05-26T08:59:43.117Z,8.07
2018-05-26T09:02:12.864Z,7.20
2018-05-26T09:04:42.622Z,6.90
2018-05-26T09:07:12.314Z,7.30
2018-05-26T09:09:42.097Z,7.83
2018-05-26T09:12:11.793Z,7.03
2018-05-26T09:14:41.528Z,6.80
2018-05-26T09:17:11.225Z,6.90
2018-05-26T09:19:40.975Z,7.10
2018-05-26T09:22:10.720Z,8.80
2018-05-26T09:24:40.460Z,7.07
2018-05-26T09:27:10.178Z,7.63
2018-05-26T09:29:39.931Z,7.47
2018-05-26T09:32:09.648Z,7.87
2018-05-26T09:34:39.373Z,7.20
2018-05-26T09:37:09.063Z,6.50
2018-05-26T09:39:38.736Z,6.97
2018-05-26T09:42:08.462Z,6.50
2018-05-26T09:44:38.169Z,7.30
2018-05-26T09:47:07.851Z,6.80
2018-05-26T09:49:37.578Z,6.77
2018-05-26T09:52:07.272Z,6.53
2018-05-26T09:54:37.076Z,6.87
2018-05-26T09:57:06.837Z,6.67
2018-05-26T09:59:36.534Z,7.20
2018-05-26T10:02:06.254Z,7.47
2018-05-26T10:04:35.917Z,6.40
2018-05-26T10:07:05.607Z,5.20
2018-05-26T10:09:35.342Z,6.00
2018-05-26T10:12:05.023Z,6.13
2018-05-26T10:14:34.700Z,6.13
2018-05-26T10:17:04.433Z,6.47
2018-05-26T10:19:34.140Z,5.80
2018-05-26T10:22:03.833Z,5.97
2018-05-26T10:24:33.555Z,5.90
2018-05-26T10:27:03.242Z,5.37
2018-05-26T10:29:32.959Z,5.23
2018-05-26T10:32:02.715Z,5.70
2018-05-26T10:34:32.427Z,5.37
2018-05-26T10:37:02.184Z,5.53
2018-05-26T10:39:31.875Z,5.40
2018-05-26T10:42:01.613Z,4.90
2018-05-26T10:44:31.344Z,5.43
2018-05-26T10:47:01.143Z,5.00
2018-05-26T10:49:30.860Z,5.23
2018-05-26T10:52:00.601Z,5.73
2018-05-26T10:54:30.312Z,5.50
2018-05-26T10:57:00.023Z,5.70
2018-05-26T10:59:29.732Z,5.90
2018-05-26T11:01:59.418Z,6.40
2018-05-26T11:04:30.921Z,7.77
2018-05-26T11:07:00.589Z,6.47
2018-05-26T11:09:30.373Z,5.77
2018-05-26T11:12:00.119Z,5.60
2018-05-26T11:14:29.829Z,5.53
2018-05-26T11:16:59.636Z,5.40
2018-05-26T11:19:29.326Z,5.57
2018-05-26T11:21:59.061Z,5.57
2018-05-26T11:24:28.846Z,5.90
2018-05-26T11:26:58.582Z,5.80
2018-05-26T11:29:28.319Z,5.50
2018-05-26T11:31:58.057Z,5.33
2018-05-26T11:34:27.771Z,4.87
2018-05-26T11:36:57.511Z,4.63
2018-05-26T11:39:27.213Z,5.03
2018-05-26T11:41:56.946Z,4.67
2018-05-26T11:44:26.662Z,4.50
2018-05-26T11:46:56.352Z,4.30
2018-05-26T11:49:26.114Z,4.40
2018-05-26T11:51:55.861Z,3.60
2018-05-26T11:54:25.547Z,4.73
2018-05-26T11:56:55.252Z,4.20
2018-05-26T11:59:24.932Z,4.60
2018-05-26T12:01:54.651Z,5.00
2018-05-26T12:04:24.391Z,4.37
2018-05-26T12:06:54.087Z,4.77
2018-05-26T12:09:23.797Z,5.30
2018-05-26T12:11:53.481Z,5.43
2018-05-26T12:14:23.203Z,5.50
2018-05-26T12:16:52.937Z,5.63
2018-05-26T12:19:22.638Z,5.57
2018-05-26T12:21:52.344Z,5.50
2018-05-26T12:24:22.060Z,5.30
2018-05-26T12:26:51.809Z,5.30
2018-05-26T12:29:21.499Z,4.60
2018-05-26T12:31:51.296Z,4.70
2018-05-26T12:34:21.004Z,4.53
2018-05-26T12:36:50.697Z,4.67
2018-05-26T12:39:20.377Z,4.93
2018-05-26T12:41:50.082Z,5.50
2018-05-26T12:44:19.842Z,5.50
2018-05-26T12:46:49.624Z,4.67
2018-05-26T12:49:19.312Z,6.70
2018-05-26T12:51:49.085Z,6.20
2018-05-26T12:54:18.797Z,5.80
2018-05-26T12:56:48.516Z,4.33
2018-05-26T12:59:18.222Z,4.57
2018-05-26T13:01:47.902Z,5.23
2018-05-26T13:04:17.630Z,4.80
2018-05-26T13:06:47.399Z,5.07
2018-05-26T13:09:17.204Z,4.40
2018-05-26T13:11:46.932Z,4.70
2018-05-26T13:14:16.615Z,4.87
2018-05-26T13:16:46.379Z,5.37
2018-05-26T13:19:16.122Z,5.30
2018-05-26T13:21:45.890Z,4.97
2018-05-26T13:24:15.649Z,5.13
2018-05-26T13:26:45.391Z,5.07
2018-05-26T13:29:15.195Z,5.00
2018-05-26T13:31:44.965Z,4.57
2018-05-26T13:34:14.665Z,4.13
2018-05-26T13:36:44.409Z,4.27
2018-05-26T13:39:14.111Z,4.60
2018-05-26T13:41:43.830Z,4.90
2018-05-26T13:44:13.600Z,5.03
2018-05-26T13:46:43.313Z,4.80
2018-05-26T13:49:13.058Z,4.53
2018-05-26T13:51:42.862Z,4.50
2018-05-26T13:54:12.639Z,4.50
2018-05-26T13:56:42.441Z,5.17
2018-05-26T13:59:12.246Z,5.27
2018-05-26T14:01:42.002Z,4.60
2018-05-26T14:04:11.814Z,5.00
2018-05-26T14:06:41.523Z,4.87
2018-05-26T14:09:11.265Z,6.10
2018-05-26T14:11:41.038Z,5.43
2018-05-26T14:14:10.798Z,5.43
2018-05-26T14:16:40.614Z,5.33
2018-05-26T14:19:10.395Z,5.20
2018-05-26T14:21:40.116Z,5.43
2018-05-26T14:24:09.862Z,4.40
2018-05-26T14:26:39.646Z,4.63
2018-05-26T14:29:09.379Z,4.80
2018-05-26T14:31:39.111Z,5.27
2018-05-26T14:34:08.853Z,5.10
2018-05-26T14:36:38.641Z,5.07
2018-05-26T14:39:08.385Z,5.20
2018-05-26T14:41:38.199Z,4.43
2018-05-26T14:44:07.913Z,5.00
2018-05-26T14:46:37.621Z,4.80
2018-05-26T14:49:07.362Z,4.77
2018-05-26T14:51:37.088Z,5.30
2018-05-26T14:54:06.798Z,5.10
2018-05-26T14:56:36.592Z,5.40
2018-05-26T14:59:06.326Z,5.60
2018-05-26T15:01:36.083Z,5.23
2018-05-26T15:04:05.801Z,5.83
2018-05-26T15:06:35.534Z,5.40
2018-05-26T15:09:06.096Z,5.70
2018-05-26T15:11:35.814Z,5.93
2018-05-26T15:14:05.587Z,5.50
2018-05-26T15:16:35.347Z,5.43
2018-05-26T15:19:05.205Z,4.83
2018-05-26T15:21:35.018Z,5.50
2018-05-26T15:24:04.738Z,4.57
2018-05-26T15:26:34.530Z,5.20
2018-05-26T15:29:04.349Z,5.13
2018-05-26T15:31:34.071Z,5.33
2018-05-26T15:34:03.778Z,5.07
2018-05-26T15:36:33.497Z,5.80
2018-05-26T15:39:03.312Z,5.37
2018-05-26T15:41:33.055Z,5.53
2018-05-26T15:44:02.776Z,4.80
2018-05-26T15:46:32.505Z,5.00
2018-05-26T15:49:02.321Z,5.03
2018-05-26T15:51:32.082Z,5.07
2018-05-26T15:54:01.822Z,5.20
2018-05-26T15:56:31.550Z,4.90
2018-05-26T15:59:01.278Z,5.13
2018-05-26T16:01:31.080Z,5.73
2018-05-26T16:04:00.792Z,5.30
2018-05-26T16:06:30.516Z,5.20
2018-05-26T16:09:00.288Z,4.80
2018-05-26T16:11:30.015Z,5.30
2018-05-26T16:13:59.813Z,5.07
2018-05-26T16:16:29.533Z,4.70
2018-05-26T16:18:59.315Z,5.00
2018-05-26T16:21:29.143Z,5.20
2018-05-26T16:23:58.849Z,5.17
2018-05-26T16:26:28.585Z,5.40
2018-05-26T16:28:58.379Z,5.70
2018-05-26T16:31:28.104Z,5.73
2018-05-26T16:33:57.915Z,6.03
2018-05-26T16:36:27.722Z,5.37
2018-05-26T16:38:57.444Z,5.40
2018-05-26T16:41:27.201Z,5.60
2018-05-26T16:43:56.976Z,5.90
2018-05-26T16:46:26.773Z,5.30
2018-05-26T16:48:56.478Z,5.50
2018-05-26T16:51:26.203Z,5.70
2018-05-26T16:53:55.953Z,5.37
2018-05-26T16:56:25.684Z,5.77
2018-05-26T16:58:55.381Z,5.50
2018-05-26T17:01:25.169Z,6.23
2018-05-26T17:03:54.903Z,5.60
2018-05-26T17:06:24.683Z,5.43
2018-05-26T17:08:54.403Z,4.90
2018-05-26T17:11:24.147Z,4.80
2018-05-26T17:13:53.914Z,4.50
2018-05-26T17:16:23.608Z,5.17
2018-05-26T17:18:53.329Z,4.67
2018-05-26T17:21:23.083Z,4.63
2018-05-26T17:23:52.795Z,4.73
2018-05-26T17:26:22.602Z,4.90
2018-05-26T17:28:52.319Z,4.90
2018-05-26T17:31:22.039Z,5.20
2018-05-26T17:33:51.783Z,4.87
2018-05-26T17:36:21.494Z,5.27
2018-05-26T17:38:51.187Z,5.40
2018-05-26T17:41:21.252Z,5.83
2018-05-26T17:43:50.953Z,5.07
2018-05-26T17:46:20.698Z,5.23
2018-05-26T17:48:50.405Z,5.73
2018-05-26T17:51:20.154Z,6.27
2018-05-26T17:53:49.929Z,5.57
2018-05-26T17:56:19.685Z,6.50
2018-05-26T17:58:49.452Z,5.83
2018-05-26T18:01:19.161Z,5.93
2018-05-26T18:03:48.883Z,6.57
2018-05-26T18:06:18.636Z,7.00
2018-05-26T18:08:48.336Z,8.03
2018-05-26T18:11:18.122Z,8.67
2018-05-26T18:13:47.886Z,8.67
2018-05-26T18:16:17.624Z,9.10
2018-05-26T18:18:47.384Z,9.07
2018-05-26T18:21:17.129Z,8.60
2018-05-26T18:23:46.826Z,8.43
2018-05-26T18:26:16.676Z,8.80
2018-05-26T18:28:46.382Z,8.43
2018-05-26T18:31:16.089Z,8.73
2018-05-26T18:33:45.956Z,9.00
2018-05-26T18:36:15.669Z,9.33
2018-05-26T18:38:45.439Z,9.07
2018-05-26T18:41:15.255Z,9.30
2018-05-26T18:43:44.996Z,8.83
2018-05-26T18:46:14.747Z,10.23
2018-05-26T18:48:44.463Z,8.90
2018-05-26T18:51:14.252Z,10.00
2018-05-26T18:53:43.969Z,9.57
2018-05-26T18:56:13.710Z,9.53
2018-05-26T18:58:43.537Z,10.00
2018-05-26T19:01:13.244Z,9.87
2018-05-26T19:03:43.004Z,9.77
2018-05-26T19:06:12.799Z,9.10
2018-05-26T19:08:42.536Z,9.33
2018-05-26T19:11:12.302Z,9.37
2018-05-26T19:13:42.019Z,8.67
2018-05-26T19:16:11.773Z,9.07
2018-05-26T19:18:41.579Z,8.97
2018-05-26T19:21:11.332Z,8.80
2018-05-26T19:23:41.533Z,8.97
2018-05-26T19:26:11.269Z,8.90
2018-05-26T19:28:41.000Z,9.00
2018-05-26T19:31:10.796Z,8.97
2018-05-26T19:33:40.499Z,9.03
2018-05-26T19:36:10.277Z,9.17
2018-05-26T19:38:40.924Z,10.33
2018-05-26T19:41:10.714Z,10.03
2018-05-26T19:43:40.430Z,9.83
2018-05-26T19:46:10.217Z,9.70
2018-05-26T19:48:40.212Z,9.80
2018-05-26T19:51:09.985Z,9.50
2018-05-26T19:53:39.786Z,9.37
2018-05-26T19:56:09.549Z,9.70
2018-05-26T19:58:39.355Z,10.03
2018-05-26T20:01:09.152Z,10.40
2018-05-26T20:03:39.312Z,9.77
2018-05-26T20:06:10.428Z,9.73
2018-05-26T20:08:41.798Z,10.00
2018-05-26T20:11:13.015Z,9.97
2018-05-26T20:13:44.137Z,9.93
2018-05-26T20:16:14.443Z,9.37
2018-05-26T20:18:44.885Z,8.97
2018-05-26T20:21:15.988Z,9.93
2018-05-26T20:23:47.460Z,10.17
2018-05-26T20:26:19.334Z,10.13
2018-05-26T20:28:51.100Z,9.93
2018-05-26T20:31:21.950Z,10.37
2018-05-26T20:33:52.697Z,10.37
2018-05-26T20:36:23.255Z,10.80
2018-05-26T20:38:54.831Z,9.80
2018-05-26T20:41:25.791Z,10.27
2018-05-26T20:43:55.701Z,10.50
2018-05-26T20:46:26.353Z,10.70
2018-05-26T20:48:56.404Z,11.30
2018-05-26T20:51:26.463Z,10.40
2018-05-26T20:53:57.234Z,10.83
2018-05-26T20:56:29.431Z,10.53
2018-05-26T20:58:59.745Z,10.83
2018-05-26T21:01:30.473Z,10.03
2018-05-26T21:04:01.208Z,10.17
2018-05-26T21:06:31.345Z,10.50
2018-05-26T21:09:01.492Z,10.53
2018-05-26T21:11:31.702Z,11.30
2018-05-26T21:14:01.785Z,11.40
2018-05-26T21:16:31.920Z,11.93
2018-05-26T21:19:02.059Z,13.57
2018-05-26T21:21:32.322Z,13.20
2018-05-26T21:24:02.815Z,14.43
2018-05-26T21:26:33.870Z,13.20
2018-05-26T21:29:04.605Z,13.47
2018-05-26T21:31:35.308Z,13.03
2018-05-26T21:34:05.321Z,13.07
2018-05-26T21:36:35.553Z,12.77
2018-05-26T21:39:06.719Z,13.67
2018-05-26T21:41:37.215Z,13.60
2018-05-26T21:44:07.805Z,13.53
2018-05-26T21:46:38.337Z,13.67
2018-05-26T21:49:08.730Z,14.67
2018-05-26T21:51:38.554Z,14.27
2018-05-26T21:54:08.758Z,13.80
2018-05-26T21:56:38.965Z,14.57
2018-05-26T21:59:09.891Z,14.43
2018-05-26T22:01:40.749Z,14.13
2018-05-26T22:04:11.548Z,12.53
2018-05-26T22:06:41.695Z,13.00
2018-05-26T22:09:12.060Z,13.50
2018-05-26T22:11:42.408Z,13.57
2018-05-26T22:14:12.983Z,13.10
2018-05-26T22:16:43.493Z,13.23
2018-05-26T22:19:14.018Z,13.50
2018-05-26T22:21:44.531Z,12.90
2018-05-26T22:24:15.081Z,13.33
2018-05-26T22:26:45.536Z,12.70
2018-05-26T22:29:16.069Z,11.53
2018-05-26T22:31:46.684Z,11.53
2018-05-26T22:34:16.687Z,11.70
2018-05-26T22:36:47.014Z,11.70
2018-05-26T22:39:17.879Z,12.93
2018-05-26T22:41:48.407Z,12.47
2018-05-26T22:44:19.014Z,12.33
2018-05-26T22:46:49.140Z,13.03
2018-05-26T22:49:19.687Z,12.37
2018-05-26T22:51:50.103Z,11.77
2018-05-26T22:54:20.855Z,12.13
2018-05-26T22:56:50.785Z,12.50
2018-05-26T22:59:21.173Z,13.50
2018-05-26T23:01:51.578Z,12.60
2018-05-26T23:04:22.021Z,12.53
2018-05-26T23:06:51.792Z,12.87
2018-05-26T23:09:21.924Z,13.53
2018-05-26T23:11:52.332Z,13.23
2018-05-26T23:14:22.857Z,15.00
2018-05-26T23:16:53.375Z,13.80
2018-05-26T23:19:23.874Z,12.63
2018-05-26T23:21:54.171Z,13.77
2018-05-26T23:24:24.037Z,14.97
2018-05-26T23:26:54.535Z,14.10
2018-05-26T23:29:24.886Z,14.47
2018-05-26T23:31:55.237Z,14.23
2018-05-26T23:34:25.390Z,14.03
2018-05-26T23:36:55.801Z,14.43
2018-05-26T23:39:25.607Z,14.73
2018-05-26T23:41:56.310Z,15.10
2018-05-26T23:44:26.643Z,14.37
2018-05-26T23:46:56.424Z,15.23
2018-05-26T23:49:27.146Z,14.40
2018-05-26T23:51:57.584Z,14.73
2018-05-26T23:54:28.365Z,14.37
2018-05-26T23:56:58.848Z,14.73
2018-05-26T23:59:28.662Z,16.20
